Harriston, Canada
Current Conditions -  °F | °C
As of 9:00 AM on Monday 24 Nov 2014 (Local Time) from CYKF Reporting Station
Overcast Overcast  
Wind Chill: 55°   Ceiling: 1600
Heat Index: 55°   Visibility: 9mi
Dew Point: 52°   Wind: 24mph
Humidity: 88%   Direction: 210°SSW
Pressure: 29.19"   Gusts: 33mph
Location:  43.92°N, 80.88°W
Report Text: CYKF 241400Z AUTO 21021G29KT 9SM BKN016 BKN020 OVC024 13/11 A2919 RMK SLP886 DENSITY ALT 1900FT
Loading
Personal Weather Stations






























Interactive Weather Map New forecast layout! Learn more

10-Day Weather Forecast

Advertisements
Track Severe Weather on mobile